createdAt,value
2022-12-16T00:00:48.971Z,6.83
2022-12-16T00:03:35.051Z,7.00
2022-12-16T00:06:22.580Z,6.83
2022-12-16T00:09:08.119Z,7.10
2022-12-16T00:11:53.850Z,7.20
2022-12-16T00:14:40.288Z,6.57
2022-12-16T00:17:25.542Z,6.23
2022-12-16T00:20:11.448Z,7.13
2022-12-16T00:22:57.234Z,7.70
2022-12-16T00:25:44.214Z,6.77
2022-12-16T00:28:29.484Z,6.83
2022-12-16T00:31:15.034Z,6.63
2022-12-16T00:34:00.483Z,6.77
2022-12-16T00:36:45.893Z,6.50
2022-12-16T00:39:31.222Z,6.73
2022-12-16T00:42:20.477Z,6.63
2022-12-16T00:45:06.319Z,6.93
2022-12-16T00:47:51.934Z,6.37
2022-12-16T00:50:37.306Z,6.63
2022-12-16T00:53:24.895Z,6.37
2022-12-16T00:56:14.562Z,6.97
2022-12-16T00:59:00.183Z,6.83
2022-12-16T01:01:45.691Z,6.40
2022-12-16T01:04:31.364Z,6.87
2022-12-16T01:07:16.699Z,6.57
2022-12-16T01:10:02.223Z,6.63
2022-12-16T01:12:47.667Z,7.00
2022-12-16T01:15:33.275Z,7.13
2022-12-16T01:18:19.048Z,6.23
2022-12-16T01:21:06.253Z,5.93
2022-12-16T01:23:52.764Z,6.50
2022-12-16T01:26:40.717Z,6.57
2022-12-16T01:29:25.940Z,6.03
2022-12-16T01:32:14.492Z,6.47
2022-12-16T01:34:59.693Z,6.60
2022-12-16T01:37:45.156Z,6.33
2022-12-16T01:40:31.016Z,6.20
2022-12-16T01:43:18.773Z,5.83
2022-12-16T01:46:07.270Z,5.90
2022-12-16T01:49:08.166Z,6.07
2022-12-16T01:51:56.368Z,6.70
2022-12-16T01:54:50.577Z,6.67
2022-12-16T01:57:42.092Z,6.50
2022-12-16T02:00:27.953Z,6.63
2022-12-16T02:03:13.646Z,6.53
2022-12-16T02:05:59.941Z,6.30
2022-12-16T02:08:45.249Z,6.50
2022-12-16T02:11:49.247Z,6.23
2022-12-16T02:14:41.509Z,6.57
2022-12-16T02:17:37.139Z,5.87
2022-12-16T02:20:51.649Z,6.17
2022-12-16T02:23:55.642Z,5.93
2022-12-16T02:27:33.010Z,6.07
2022-12-16T02:30:21.301Z,6.03
2022-12-16T02:33:27.613Z,5.90
2022-12-16T02:36:41.061Z,6.33
2022-12-16T02:39:47.612Z,6.18
2022-12-16T02:42:48.204Z,6.13
2022-12-16T02:45:35.298Z,6.13
2022-12-16T02:48:20.727Z,5.93
2022-12-16T02:51:06.582Z,6.40
2022-12-16T02:53:53.376Z,6.53
2022-12-16T02:57:08.586Z,6.00
2022-12-16T03:00:05.949Z,6.00
2022-12-16T03:03:18.613Z,6.20
2022-12-16T03:06:05.856Z,5.77
2022-12-16T03:08:57.112Z,6.67
2022-12-16T03:11:45.545Z,6.00
2022-12-16T03:14:34.524Z,6.60
2022-12-16T03:17:22.124Z,6.00
2022-12-16T03:20:12.637Z,6.20
2022-12-16T03:23:02.116Z,6.30
2022-12-16T03:25:50.901Z,6.07
2022-12-16T03:29:01.981Z,6.10
2022-12-16T03:32:03.273Z,6.73
2022-12-16T03:35:06.362Z,6.07
2022-12-16T03:37:55.570Z,6.13
2022-12-16T03:40:44.163Z,6.07
2022-12-16T03:43:30.241Z,6.10
2022-12-16T03:46:17.254Z,6.03
2022-12-16T03:49:02.785Z,6.27
2022-12-16T03:51:48.365Z,6.00
2022-12-16T03:54:33.725Z,6.40
2022-12-16T03:57:19.361Z,6.50
2022-12-16T04:00:05.952Z,6.47
2022-12-16T04:02:57.663Z,6.23
2022-12-16T04:05:43.024Z,7.23
2022-12-16T04:08:28.424Z,6.73
2022-12-16T04:11:33.189Z,6.10
2022-12-16T04:14:37.002Z,6.30
2022-12-16T04:17:40.780Z,7.00
2022-12-16T04:20:50.306Z,6.83
2022-12-16T04:24:01.205Z,7.20
2022-12-16T04:27:15.050Z,7.70
2022-12-16T04:30:19.050Z,7.50
2022-12-16T04:33:29.715Z,7.65
2022-12-16T04:36:33.745Z,7.37
2022-12-16T04:39:37.722Z,7.43
2022-12-16T04:42:41.632Z,7.90
2022-12-16T04:48:49.435Z,6.95
2022-12-16T04:54:57.537Z,6.40
2022-12-16T04:58:10.921Z,7.40
2022-12-16T05:01:14.832Z,8.03
2022-12-16T05:07:22.605Z,7.95
2022-12-16T05:13:31.747Z,7.07
2022-12-16T05:16:36.024Z,8.37
2022-12-16T05:19:40.298Z,7.93
2022-12-16T05:25:48.378Z,9.27
2022-12-16T05:28:53.804Z,8.47
2022-12-16T05:31:57.681Z,10.03
2022-12-16T05:38:05.230Z,10.85
2022-12-16T05:44:12.763Z,9.88
2022-12-16T05:50:20.461Z,9.23
2022-12-16T05:56:28.055Z,9.55
2022-12-16T05:59:32.048Z,9.33
2022-12-16T06:02:36.073Z,8.87
2022-12-16T06:05:40.372Z,9.00
2022-12-16T06:08:44.163Z,9.10
2022-12-16T06:11:48.188Z,9.63
2022-12-16T06:14:52.090Z,10.10
2022-12-16T06:20:59.730Z,9.60
2022-12-16T06:24:03.427Z,9.73
2022-12-16T06:27:07.476Z,9.23
2022-12-16T06:30:11.399Z,9.67
2022-12-16T06:36:18.991Z,8.95
2022-12-16T06:42:26.611Z,8.63
2022-12-16T06:48:39.106Z,8.57
2022-12-16T06:51:42.933Z,8.27
2022-12-16T06:54:46.733Z,9.10
2022-12-16T06:57:50.648Z,8.73
2022-12-16T07:00:54.642Z,7.93
2022-12-16T07:03:59.540Z,7.87
2022-12-16T07:07:03.260Z,8.45
2022-12-16T07:10:07.144Z,7.93
2022-12-16T07:13:11.130Z,8.47
2022-12-16T07:16:15.213Z,8.70
2022-12-16T07:19:18.874Z,8.82
2022-12-16T07:22:22.635Z,8.45
2022-12-16T07:28:30.359Z,8.57
2022-12-16T07:34:42.028Z,7.80
2022-12-16T07:37:47.871Z,8.10
2022-12-16T07:40:51.876Z,8.47
2022-12-16T07:43:55.708Z,8.60
2022-12-16T07:46:59.498Z,8.45
2022-12-16T07:50:03.349Z,7.72
2022-12-16T07:56:16.495Z,7.33
2022-12-16T07:59:20.359Z,8.38
2022-12-16T08:02:24.696Z,8.50
2022-12-16T08:05:28.928Z,8.40
2022-12-16T08:11:36.647Z,8.05
2022-12-16T08:14:40.383Z,7.63
2022-12-16T08:17:48.740Z,7.47
2022-12-16T08:20:53.053Z,8.63
2022-12-16T08:23:58.713Z,7.87
2022-12-16T08:27:02.477Z,7.45
2022-12-16T08:33:18.502Z,7.85
2022-12-16T08:36:24.119Z,7.28
2022-12-16T08:39:27.934Z,8.17
2022-12-16T08:42:31.764Z,7.73
2022-12-16T08:45:35.930Z,8.33
2022-12-16T08:51:43.634Z,8.32
2022-12-16T08:57:51.542Z,7.90
2022-12-16T09:03:59.928Z,7.47
2022-12-16T09:07:04.086Z,9.07
2022-12-16T09:13:12.831Z,9.17
2022-12-16T09:16:19.494Z,9.50
2022-12-16T09:19:23.697Z,10.37
2022-12-16T09:22:27.603Z,9.68
2022-12-16T09:25:31.572Z,10.50
2022-12-16T09:31:39.541Z,9.23
2022-12-16T09:37:47.184Z,9.82
2022-12-16T09:40:50.953Z,9.90
2022-12-16T09:47:35.579Z,9.40
2022-12-16T09:50:44.458Z,9.60
2022-12-16T09:53:55.474Z,8.57
2022-12-16T09:57:02.057Z,9.77
2022-12-16T10:00:16.071Z,9.60
2022-12-16T10:03:31.767Z,9.53
2022-12-16T10:06:54.550Z,8.97
2022-12-16T10:10:15.467Z,9.13
2022-12-16T10:13:28.361Z,9.27
2022-12-16T10:16:58.651Z,8.80
2022-12-16T10:20:22.057Z,9.80
2022-12-16T10:23:48.100Z,9.13
2022-12-16T10:27:19.869Z,8.60
2022-12-16T10:30:31.528Z,8.90
2022-12-16T10:33:37.599Z,9.37
2022-12-16T10:36:43.398Z,8.70
2022-12-16T10:39:51.119Z,9.43
2022-12-16T10:43:05.781Z,9.47
2022-12-16T10:46:12.458Z,9.17
2022-12-16T10:49:16.396Z,8.80
2022-12-16T10:52:20.707Z,9.20
2022-12-16T10:55:52.733Z,8.33
2022-12-16T10:59:10.156Z,8.70
2022-12-16T11:02:41.509Z,8.80
2022-12-16T11:05:53.950Z,8.70
2022-12-16T11:08:59.821Z,8.90
2022-12-16T11:12:03.719Z,8.97
2022-12-16T11:18:38.162Z,10.10
2022-12-16T11:21:41.977Z,9.20
2022-12-16T11:24:46.783Z,9.02
2022-12-16T11:27:50.720Z,9.20
2022-12-16T11:30:55.088Z,8.85
2022-12-16T11:34:00.894Z,9.07
2022-12-16T11:37:10.353Z,9.27
2022-12-16T11:40:15.065Z,8.73
2022-12-16T11:43:22.436Z,9.57
2022-12-16T11:46:31.755Z,8.80
2022-12-16T11:49:50.994Z,8.60
2022-12-16T11:52:55.257Z,9.10
2022-12-16T11:56:11.170Z,8.53
2022-12-16T11:59:25.554Z,8.97
2022-12-16T12:02:56.116Z,8.90
2022-12-16T12:06:14.461Z,8.93
2022-12-16T12:09:29.695Z,9.67
2022-12-16T12:13:06.626Z,9.70
2022-12-16T12:16:41.429Z,9.00
2022-12-16T12:20:25.781Z,9.53
2022-12-16T12:23:30.594Z,8.75
2022-12-16T12:32:35.584Z,9.07
2022-12-16T12:36:13.472Z,9.77
2022-12-16T12:39:28.757Z,9.27
2022-12-16T12:42:48.740Z,9.40
2022-12-16T12:46:38.159Z,9.50
2022-12-16T12:49:53.276Z,9.77
2022-12-16T12:53:16.530Z,9.35
2022-12-16T12:56:46.966Z,9.80
2022-12-16T13:00:19.491Z,10.00
2022-12-16T13:04:02.403Z,10.10
2022-12-16T13:07:07.351Z,9.60
2022-12-16T13:10:48.740Z,10.17
2022-12-16T13:13:55.537Z,10.47
2022-12-16T13:17:02.719Z,10.50
2022-12-16T13:20:16.273Z,10.10
2022-12-16T13:23:42.651Z,11.38
2022-12-16T13:26:49.469Z,11.17
2022-12-16T13:29:53.419Z,11.00
2022-12-16T13:32:57.241Z,10.33
2022-12-16T13:36:18.101Z,10.93
2022-12-16T13:39:59.493Z,10.47
2022-12-16T13:43:03.104Z,10.60
2022-12-16T13:46:33.399Z,10.30
2022-12-16T13:50:00.408Z,10.83
2022-12-16T13:53:14.844Z,10.50
2022-12-16T13:56:19.689Z,11.00
2022-12-16T13:59:29.948Z,10.50
2022-12-16T14:02:38.907Z,10.50
2022-12-16T14:05:47.568Z,10.87
2022-12-16T14:08:56.571Z,10.57
2022-12-16T14:12:16.119Z,10.13
2022-12-16T14:15:30.017Z,10.60
2022-12-16T14:18:48.558Z,10.80
2022-12-16T14:22:07.688Z,10.30
2022-12-16T14:25:12.464Z,10.20
2022-12-16T14:28:17.381Z,9.77
2022-12-16T14:31:24.243Z,11.20
2022-12-16T14:34:38.569Z,10.73
2022-12-16T14:37:48.662Z,9.87
2022-12-16T14:40:52.478Z,9.77
2022-12-16T14:47:10.438Z,9.03
2022-12-16T14:50:14.549Z,9.40
2022-12-16T14:53:38.547Z,14.67
2022-12-16T14:56:42.274Z,10.55
2022-12-16T14:59:46.534Z,11.33
2022-12-16T15:03:02.674Z,10.20
2022-12-16T15:06:07.572Z,10.87
2022-12-16T15:09:16.748Z,10.60
2022-12-16T15:12:21.133Z,10.47
2022-12-16T15:15:32.919Z,10.20
2022-12-16T15:18:52.313Z,10.37
2022-12-16T15:21:56.950Z,10.77
2022-12-16T15:25:02.653Z,10.40
2022-12-16T15:28:14.396Z,9.80
2022-12-16T15:31:32.043Z,10.30
2022-12-16T15:34:49.175Z,9.27
2022-12-16T15:38:03.860Z,10.77
2022-12-16T15:41:09.880Z,10.23
2022-12-16T15:44:28.207Z,11.00
2022-12-16T15:47:59.156Z,10.30
2022-12-16T15:51:12.144Z,11.00
2022-12-16T15:54:22.944Z,11.50
2022-12-16T15:57:51.407Z,11.90
2022-12-16T16:00:55.113Z,11.53
2022-12-16T16:04:08.397Z,11.97
2022-12-16T16:07:12.242Z,11.40
2022-12-16T16:13:29.070Z,14.43
2022-12-16T16:16:34.124Z,16.03
2022-12-16T16:19:45.016Z,16.97
2022-12-16T16:22:48.912Z,16.83
2022-12-16T16:28:57.015Z,17.88
2022-12-16T16:32:04.145Z,19.40
2022-12-16T16:35:09.100Z,19.57
2022-12-16T16:38:18.354Z,18.70
2022-12-16T16:41:22.586Z,17.50
2022-12-16T16:47:35.354Z,17.75
2022-12-16T16:50:39.150Z,18.63
2022-12-16T16:53:42.899Z,18.20
2022-12-16T16:59:51.153Z,17.30
2022-12-16T17:05:59.460Z,16.73
2022-12-16T17:09:03.298Z,17.30
2022-12-16T17:15:10.861Z,16.67
2022-12-16T17:21:18.703Z,16.70
2022-12-16T17:24:22.546Z,16.00
2022-12-16T17:27:36.185Z,16.37
2022-12-16T17:30:46.930Z,16.67
2022-12-16T17:33:51.483Z,15.23
2022-12-16T17:39:59.169Z,15.57
2022-12-16T17:43:03.229Z,15.20
2022-12-16T17:46:22.386Z,15.90
2022-12-16T17:49:28.669Z,14.30
2022-12-16T17:52:32.446Z,14.70
2022-12-16T17:55:36.311Z,15.63
2022-12-16T18:01:44.253Z,13.88
2022-12-16T18:04:48.283Z,13.97
2022-12-16T18:10:56.182Z,13.23
2022-12-16T18:14:00.202Z,13.07
2022-12-16T18:17:04.139Z,13.13
2022-12-16T18:23:12.780Z,15.30
2022-12-16T18:26:24.319Z,15.03
2022-12-16T18:29:28.096Z,14.83
2022-12-16T18:35:43.056Z,13.03
2022-12-16T18:38:46.960Z,13.83
2022-12-16T18:41:51.551Z,12.80
2022-12-16T18:45:00.892Z,13.50
2022-12-16T18:48:05.464Z,13.00
2022-12-16T18:51:17.382Z,12.07
2022-12-16T18:54:35.385Z,12.70
2022-12-16T18:57:40.198Z,12.93
2022-12-16T19:00:43.894Z,12.27
2022-12-16T19:03:47.903Z,12.73
2022-12-16T19:06:52.910Z,12.47
2022-12-16T19:09:57.120Z,12.50
2022-12-16T19:13:01.537Z,12.30
2022-12-16T19:16:15.717Z,12.80
2022-12-16T19:19:20.351Z,12.30
2022-12-16T19:22:24.708Z,13.23
2022-12-16T19:25:48.355Z,13.53
2022-12-16T19:28:53.429Z,13.77
2022-12-16T19:32:00.501Z,13.60
2022-12-16T19:35:04.843Z,13.97
2022-12-16T19:38:08.571Z,13.93
2022-12-16T19:41:14.019Z,14.53
2022-12-16T19:47:25.631Z,14.17
2022-12-16T19:50:30.421Z,14.63
2022-12-16T19:53:34.484Z,13.87
2022-12-16T19:56:39.126Z,14.87
2022-12-16T19:59:43.598Z,14.87
2022-12-16T20:05:52.008Z,14.33
2022-12-16T20:08:55.766Z,14.23
2022-12-16T20:12:02.179Z,14.67
2022-12-16T20:15:09.238Z,15.43
2022-12-16T20:18:13.197Z,14.57
2022-12-16T20:21:21.593Z,14.67
2022-12-16T20:24:28.797Z,12.93
2022-12-16T20:27:32.550Z,13.40
2022-12-16T20:30:36.662Z,12.37
2022-12-16T20:33:41.222Z,12.43
2022-12-16T20:36:45.453Z,12.33
2022-12-16T20:43:00.876Z,10.70
2022-12-16T20:46:06.355Z,11.90
2022-12-16T20:49:10.352Z,11.97
2022-12-16T20:52:14.352Z,11.53
2022-12-16T20:55:18.211Z,11.30
2022-12-16T21:01:26.104Z,11.07
2022-12-16T21:04:29.906Z,10.87
2022-12-16T21:07:33.833Z,11.30
2022-12-16T21:10:37.725Z,11.67
2022-12-16T21:16:45.344Z,11.88
2022-12-16T21:19:49.181Z,11.27
2022-12-16T21:22:53.149Z,10.80
2022-12-16T21:29:00.830Z,10.07
2022-12-16T21:35:08.394Z,11.00
2022-12-16T21:38:13.463Z,10.73
2022-12-16T21:44:21.230Z,10.65
2022-12-16T21:50:28.772Z,11.10
2022-12-16T21:56:36.560Z,10.43
2022-12-16T22:02:44.180Z,10.75
2022-12-16T22:05:48.246Z,10.27
2022-12-16T22:12:03.794Z,11.13
2022-12-16T22:15:07.503Z,10.90
2022-12-16T22:18:11.326Z,9.65
2022-12-16T22:21:20.815Z,9.70
2022-12-16T22:24:24.459Z,10.40
2022-12-16T22:30:32.152Z,9.77
2022-12-16T22:33:35.703Z,10.02
2022-12-16T22:36:39.593Z,9.00
2022-12-16T22:39:45.062Z,10.40
2022-12-16T22:42:49.209Z,9.57
2022-12-16T22:49:00.191Z,10.33
2022-12-16T22:55:08.002Z,9.15
2022-12-16T23:01:16.545Z,9.23
2022-12-16T23:04:20.541Z,9.20
2022-12-16T23:07:24.102Z,9.73
2022-12-16T23:10:28.094Z,10.13
2022-12-16T23:13:32.337Z,9.60
2022-12-16T23:16:36.304Z,9.17
2022-12-16T23:19:40.008Z,9.43
2022-12-16T23:25:47.734Z,9.55
2022-12-16T23:32:15.483Z,9.07
2022-12-16T23:35:19.854Z,9.53
2022-12-16T23:38:25.298Z,8.97
2022-12-16T23:41:29.017Z,10.13
2022-12-16T23:47:36.994Z,8.35
2022-12-16T23:53:44.686Z,8.70
2022-12-16T23:56:48.532Z,9.57
2022-12-16T23:59:52.464Z,9.47
